Time;durP1;ratioP1;P1;durP2;ratioP2;P2;SDS_P1;SDS_P2;PMS_P1;PMS_P2;Temp;Humidity;BMP_temperature;BMP_pressure;BME280_temperature;BME280_humidity;BME280_pressure;Samples;Min_cycle;Max_cycle;Signal;HPM_P1;HPM_P2
2022/02/19 00:01:27;;;;;;;0.50;0.40;;;;;;;9.73;64.67;97976.05;107579;1276;109148;-74
2022/02/19 00:03:56;;;;;;;0.40;0.40;;;;;;;9.75;64.69;97979.84;107428;1276;139510;-72
2022/02/19 00:06:24;;;;;;;0.50;0.40;;;;;;;9.80;64.48;97987.86;107571;1276;96808;-73
2022/02/19 00:08:52;;;;;;;0.50;0.40;;;;;;;9.81;64.21;97992.23;107570;1276;139169;-73
2022/02/19 00:11:20;;;;;;;0.50;0.50;;;;;;;9.83;64.37;97998.63;107536;1275;100090;-74
2022/02/19 00:13:47;;;;;;;0.40;0.40;;;;;;;9.80;64.27;97994.58;107290;1277;109002;-73
2022/02/19 00:16:15;;;;;;;0.50;0.50;;;;;;;9.86;64.36;98004.17;107445;1276;139017;-74
2022/02/19 00:18:43;;;;;;;0.40;0.30;;;;;;;9.90;64.05;97996.64;107552;1276;93161;-73
2022/02/19 00:21:10;;;;;;;0.40;0.40;;;;;;;9.91;63.99;97996.73;107456;1276;140381;-73
2022/02/19 00:23:40;;;;;;;0.40;0.40;;;;;;;9.96;63.84;98003.20;107581;1276;99517;-74
2022/02/19 00:26:08;;;;;;;0.50;0.40;;;;;;;9.98;63.82;98006.96;107520;1276;108784;-73
2022/02/19 00:28:36;;;;;;;0.50;0.40;;;;;;;10.04;63.73;98013.32;107438;1276;139697;-72
2022/02/19 00:31:04;;;;;;;0.50;0.50;;;;;;;10.10;63.36;98006.88;107569;1276;93546;-73
2022/02/19 00:33:32;;;;;;;0.40;0.40;;;;;;;10.18;63.53;97992.41;107473;1276;139855;-73
2022/02/19 00:36:00;;;;;;;0.50;0.50;;;;;;;10.20;62.75;97992.95;107545;1276;98965;-73
2022/02/19 00:38:28;;;;;;;0.50;0.50;;;;;;;10.23;62.64;98004.84;107603;1276;107030;-73
2022/02/19 00:40:56;;;;;;;0.50;0.40;;;;;;;10.28;62.35;97984.11;107360;1276;139892;-73
2022/02/19 00:43:24;;;;;;;0.40;0.30;;;;;;;10.36;62.01;97986.64;107605;1276;93314;-72
2022/02/19 00:45:52;;;;;;;0.40;0.40;;;;;;;10.41;61.70;97983.02;107454;1276;140086;-72
2022/02/19 00:48:20;;;;;;;0.40;0.40;;;;;;;10.42;60.97;97998.56;107398;1277;98353;-72
2022/02/19 00:51:07;;;;;;;0.40;0.40;;;;;;;10.49;60.55;98005.72;107464;1276;140524;-73
2022/02/19 00:53:35;;;;;;;0.40;0.30;;;;;;;10.52;60.41;98036.55;107550;1276;93822;-71
2022/02/19 00:56:04;;;;;;;0.40;0.40;;;;;;;10.55;62.53;98132.52;107575;1276;93175;-72
2022/02/19 00:58:32;;;;;;;0.40;0.40;;;;;;;10.47;62.56;98126.27;107448;1276;141100;-73
2022/02/19 01:01:00;;;;;;;0.40;0.30;;;;;;;10.29;61.62;98134.15;107460;1276;99932;-73
2022/02/19 01:03:42;;;;;;;0.40;0.30;;;;;;;10.13;61.24;98129.06;107268;1276;141066;-71
2022/02/19 01:06:10;;;;;;;0.40;0.40;;;;;;;10.01;59.18;98131.58;107595;1275;94275;-72
2022/02/19 01:08:38;;;;;;;0.50;0.40;;;;;;;9.92;58.46;98134.77;107503;1276;93249;-72
2022/02/19 01:11:06;;;;;;;0.50;0.40;;;;;;;9.83;57.35;98133.52;107484;1276;139104;-72
2022/02/19 01:13:35;;;;;;;0.50;0.40;;;;;;;9.74;56.59;98125.55;107434;1277;99838;-72
2022/02/19 01:16:03;;;;;;;0.50;0.40;;;;;;;9.68;55.15;98125.89;107454;1276;139261;-73
2022/02/19 01:18:30;;;;;;;0.40;0.40;;;;;;;9.66;54.96;98124.80;107600;1276;93497;-72
2022/02/19 01:20:58;;;;;;;0.50;0.40;;;;;;;9.63;54.48;98135.77;107456;1275;138703;-71
2022/02/19 01:23:26;;;;;;;0.50;0.40;;;;;;;9.63;54.30;98130.98;107613;1276;110987;-72
2022/02/19 01:25:55;;;;;;;0.40;0.40;;;;;;;9.63;54.30;98141.80;107386;1276;99518;-72
2022/02/19 01:28:23;;;;;;;0.50;0.40;;;;;;;9.64;54.46;98142.63;107483;1276;138244;-72
2022/02/19 01:30:51;;;;;;;0.40;0.40;;;;;;;9.62;54.36;98139.89;107587;1275;93790;-72
2022/02/19 01:33:18;;;;;;;0.50;0.50;;;;;;;9.60;53.86;98139.88;107508;1276;141019;-72
2022/02/19 01:35:46;;;;;;;0.50;0.50;;;;;;;9.61;54.24;98138.20;107406;1277;109789;-72
2022/02/19 01:38:14;;;;;;;0.60;0.60;;;;;;;9.63;54.72;98146.95;107417;1276;98977;-73
2022/02/19 01:40:42;;;;;;;0.50;0.50;;;;;;;9.62;54.19;98155.15;107511;1276;138567;-73
2022/02/19 01:43:10;;;;;;;0.50;0.50;;;;;;;9.62;54.06;98156.71;107496;1276;94201;-73
2022/02/19 01:45:38;;;;;;;0.50;0.50;;;;;;;9.61;53.51;98150.02;107333;1277;139534;-72
2022/02/19 01:48:09;;;;;;;0.50;0.40;;;;;;;9.60;52.64;98151.54;107394;1277;108920;-72
2022/02/19 01:50:38;;;;;;;0.60;0.60;;;;;;;9.59;52.30;98160.48;107493;1276;99667;-74
2022/02/19 01:53:06;;;;;;;0.50;0.50;;;;;;;9.58;51.31;98155.38;107400;1276;139343;-72
2022/02/19 01:55:40;;;;;;;0.50;0.50;;;;;;;9.59;50.56;98159.77;107365;1276;93325;-73
2022/02/19 01:58:26;;;;;;;0.50;0.50;;;;;;;9.57;49.75;98165.35;107420;1276;138919;-72
2022/02/19 02:01:08;;;;;;;0.50;0.50;;;;;;;9.54;48.89;98172.25;107483;1276;109973;-77
2022/02/19 02:03:54;;;;;;;0.50;0.50;;;;;;;9.53;48.69;98172.10;107526;1276;138860;-78
2022/02/19 02:06:26;;;;;;;0.50;0.50;;;;;;;9.50;48.04;98167.70;107510;1276;108813;-77
2022/02/19 02:08:57;;;;;;;0.50;0.50;;;;;;;9.48;47.65;98177.38;107430;1277;138711;-77
2022/02/19 02:11:26;;;;;;;0.50;0.50;;;;;;;9.46;47.17;98182.66;107625;1276;93331;-78
2022/02/19 02:13:58;;;;;;;0.50;0.50;;;;;;;9.44;47.08;98191.44;107642;1276;108943;-77
2022/02/19 02:16:35;;;;;;;0.50;0.50;;;;;;;9.44;46.91;98195.66;107203;1278;138789;-79
2022/02/19 02:19:06;;;;;;;0.60;0.60;;;;;;;9.43;46.19;98196.26;107597;1276;108797;-79
2022/02/19 02:21:38;;;;;;;0.50;0.50;;;;;;;9.45;46.53;98205.02;107443;1276;138931;-77
2022/02/19 02:24:06;;;;;;;0.50;0.40;;;;;;;9.44;45.37;98209.70;107438;1276;93660;-76
2022/02/19 02:26:35;;;;;;;0.50;0.50;;;;;;;9.42;45.07;98211.92;107427;1276;109984;-79
2022/02/19 02:29:03;;;;;;;0.50;0.50;;;;;;;9.40;44.84;98208.84;107407;1276;140005;-79
2022/02/19 02:31:31;;;;;;;0.50;0.50;;;;;;;9.40;44.68;98225.66;107502;1276;108807;-77
2022/02/19 02:34:00;;;;;;;0.50;0.50;;;;;;;9.39;44.68;98227.51;107369;1276;138917;-76
2022/02/19 02:36:28;;;;;;;0.50;0.50;;;;;;;9.38;44.68;98233.01;107536;1276;93399;-77
2022/02/19 02:38:57;;;;;;;0.50;0.50;;;;;;;9.38;45.25;98242.42;107434;1277;139111;-77
2022/02/19 02:41:26;;;;;;;0.50;0.50;;;;;;;9.37;45.75;98246.17;107505;1275;99517;-77
2022/02/19 02:43:56;;;;;;;0.50;0.50;;;;;;;9.36;45.59;98244.14;107379;1277;108935;-77
2022/02/19 02:46:24;;;;;;;0.50;0.50;;;;;;;9.33;45.43;98251.16;107401;1276;138869;-77
2022/02/19 02:48:52;;;;;;;0.50;0.50;;;;;;;9.33;45.49;98255.10;107464;1277;93423;-77
2022/02/19 02:51:20;;;;;;;0.50;0.50;;;;;;;9.33;45.36;98249.75;107494;1276;139603;-77
2022/02/19 02:53:48;;;;;;;0.40;0.40;;;;;;;9.32;44.80;98258.86;107443;1276;99929;-77
2022/02/19 02:56:16;;;;;;;0.50;0.40;;;;;;;9.35;45.29;98259.40;107613;1276;109042;-77
2022/02/19 02:58:44;;;;;;;0.50;0.50;;;;;;;9.37;44.83;98263.90;107347;1276;139072;-76
2022/02/19 03:01:13;;;;;;;0.50;0.50;;;;;;;9.38;44.71;98267.74;107476;1276;94008;-77
2022/02/19 03:03:42;;;;;;;0.50;0.50;;;;;;;9.37;44.16;98262.85;107266;1276;141624;-78
2022/02/19 03:06:12;;;;;;;0.50;0.50;;;;;;;9.38;44.92;98259.97;107572;1276;99392;-77
2022/02/19 03:08:42;;;;;;;0.50;0.50;;;;;;;9.36;43.94;98267.12;107515;1276;108965;-77
2022/02/19 03:11:13;;;;;;;0.50;0.50;;;;;;;9.34;43.67;98277.15;107456;1275;140818;-77
2022/02/19 03:13:41;;;;;;;0.50;0.40;;;;;;;9.33;44.43;98282.87;107453;1277;93544;-77
2022/02/19 03:16:09;;;;;;;0.50;0.50;;;;;;;9.30;44.07;98286.25;107308;1277;140772;-78
2022/02/19 03:18:38;;;;;;;0.50;0.50;;;;;;;9.30;44.42;98283.05;107525;1276;99926;-78
2022/02/19 03:21:06;;;;;;;0.50;0.50;;;;;;;9.28;44.02;98292.73;107475;1276;138547;-78
2022/02/19 03:23:34;;;;;;;0.50;0.50;;;;;;;9.24;44.21;98289.75;107529;1277;92982;-77
2022/02/19 03:26:07;;;;;;;0.50;0.50;;;;;;;9.21;44.37;98290.44;107609;1276;93476;-78
2022/02/19 03:28:36;;;;;;;0.50;0.50;;;;;;;9.20;44.41;98296.88;107353;1276;140014;-77
2022/02/19 03:31:04;;;;;;;0.60;0.60;;;;;;;9.21;44.47;98305.13;107555;1276;99926;-77
2022/02/19 03:34:01;;;;;;;0.60;0.60;;;;;;;9.22;43.95;98315.17;107299;1275;139147;-78
2022/02/19 03:36:30;;;;;;;0.50;0.50;;;;;;;9.23;43.68;98313.55;107476;1276;93693;-77
2022/02/19 03:39:00;;;;;;;0.50;0.50;;;;;;;9.25;43.83;98321.43;107520;1276;138804;-77
2022/02/19 03:41:28;;;;;;;0.50;0.50;;;;;;;9.27;43.87;98327.70;107515;1276;123942;-77
2022/02/19 03:43:58;;;;;;;0.50;0.50;;;;;;;9.25;43.48;98321.23;107461;1276;100082;-77
2022/02/19 03:46:26;;;;;;;0.50;0.50;;;;;;;9.22;43.29;98330.95;107499;1276;138781;-77
2022/02/19 03:49:05;;;;;;;0.50;0.50;;;;;;;9.19;42.85;98340.13;107484;1276;93411;-77
2022/02/19 03:51:34;;;;;;;0.50;0.50;;;;;;;9.18;42.65;98352.42;107414;1276;140669;-78
2022/02/19 03:54:02;;;;;;;0.50;0.50;;;;;;;9.14;41.97;98356.84;107481;1276;109670;-77
2022/02/19 03:56:31;;;;;;;0.50;0.50;;;;;;;9.07;41.09;98355.48;107512;1277;99533;-77
2022/02/19 03:59:04;;;;;;;0.60;0.60;;;;;;;9.06;41.17;98364.23;107191;1276;138511;-77
2022/02/19 04:01:32;;;;;;;0.50;0.50;;;;;;;9.04;41.91;98374.73;107379;1276;93980;-77
2022/02/19 04:04:03;;;;;;;0.60;0.60;;;;;;;9.01;41.95;98377.39;107300;1276;138317;-78
2022/02/19 04:06:32;;;;;;;0.50;0.50;;;;;;;8.98;42.33;98377.71;107514;1277;109036;-77
2022/02/19 04:09:01;;;;;;;0.50;0.50;;;;;;;8.96;42.60;98377.13;107324;1276;139589;-78
2022/02/19 04:11:29;;;;;;;0.50;0.50;;;;;;;8.94;42.66;98392.59;107299;1277;108803;-77
2022/02/19 04:13:56;;;;;;;0.50;0.50;;;;;;;8.90;42.63;98384.67;107495;1277;96683;-78
2022/02/19 04:16:32;;;;;;;0.50;0.50;;;;;;;8.91;43.51;98390.45;107529;1276;138740;-77
2022/02/19 04:19:00;;;;;;;0.60;0.60;;;;;;;8.93;44.04;98397.98;107415;1277;108744;-78
2022/02/19 04:21:28;;;;;;;0.60;0.60;;;;;;;8.98;44.11;98392.73;107430;1276;139023;-78
2022/02/19 04:23:56;;;;;;;0.50;0.50;;;;;;;9.01;44.42;98395.42;107620;1276;108789;-77
2022/02/19 04:26:25;;;;;;;0.50;0.50;;;;;;;9.01;44.55;98395.98;107488;1276;93162;-78
2022/02/19 04:28:54;;;;;;;0.50;0.50;;;;;;;9.00;44.84;98398.45;107416;1276;139692;-78
2022/02/19 04:31:29;;;;;;;0.60;0.60;;;;;;;8.97;44.99;98399.36;107409;1276;110242;-78
2022/02/19 04:34:17;;;;;;;0.50;0.50;;;;;;;8.96;45.19;98397.85;107484;1276;138604;-78
2022/02/19 04:36:49;;;;;;;0.50;0.50;;;;;;;8.92;45.31;98396.59;107484;1276;107966;-77
2022/02/19 04:39:18;;;;;;;0.60;0.60;;;;;;;8.92;44.98;98399.08;107382;1276;141080;-77
2022/02/19 04:41:46;;;;;;;0.60;0.60;;;;;;;8.88;44.42;98403.19;107527;1276;93607;-78
2022/02/19 04:44:16;;;;;;;0.50;0.50;;;;;;;8.82;44.04;98403.30;107480;1277;109667;-77
2022/02/19 04:46:45;;;;;;;0.50;0.50;;;;;;;8.79;43.51;98408.42;107325;1276;138903;-77
2022/02/19 04:49:13;;;;;;;0.70;0.70;;;;;;;8.81;43.41;98407.42;107475;1276;108754;-76
2022/02/19 04:51:41;;;;;;;0.60;0.60;;;;;;;8.78;42.81;98402.96;107400;1276;137904;-78
2022/02/19 04:54:09;;;;;;;0.50;0.50;;;;;;;8.79;42.93;98406.64;107509;1277;93301;-78
2022/02/19 04:56:36;;;;;;;0.60;0.60;;;;;;;8.80;42.97;98411.73;107511;1277;109805;-77
2022/02/19 04:59:05;;;;;;;0.60;0.60;;;;;;;8.77;42.42;98412.41;107342;1276;141444;-78
2022/02/19 05:01:38;;;;;;;0.60;0.60;;;;;;;8.73;42.58;98412.83;107504;1277;107783;-77
2022/02/19 05:04:11;;;;;;;0.50;0.50;;;;;;;8.72;41.88;98420.27;107268;1278;139639;-78
2022/02/19 05:06:45;;;;;;;0.60;0.60;;;;;;;8.71;41.63;98419.23;107439;1276;93819;-77
2022/02/19 05:09:14;;;;;;;0.60;0.60;;;;;;;8.72;41.38;98414.27;107344;1277;161148;-78
2022/02/19 05:11:46;;;;;;;0.50;0.50;;;;;;;8.71;41.25;98411.85;107532;1277;98521;-77
2022/02/19 05:14:14;;;;;;;0.50;0.50;;;;;;;8.71;41.36;98421.39;107370;1277;109141;-77
2022/02/19 05:16:43;;;;;;;0.50;0.50;;;;;;;8.70;41.08;98430.09;107302;1276;140459;-78
2022/02/19 05:19:12;;;;;;;0.60;0.60;;;;;;;8.71;41.50;98430.40;107474;1276;93378;-78
2022/02/19 05:21:41;;;;;;;0.50;0.50;;;;;;;8.70;41.47;98434.15;107345;1277;139652;-78
2022/02/19 05:24:12;;;;;;;0.60;0.60;;;;;;;8.66;41.38;98447.43;107534;1277;99099;-78
2022/02/19 05:26:47;;;;;;;0.60;0.60;;;;;;;8.68;41.91;98428.98;107517;1276;110271;-78
2022/02/19 05:29:17;;;;;;;0.60;0.60;;;;;;;8.67;41.97;98440.70;107327;1277;138575;-79
2022/02/19 05:31:47;;;;;;;0.50;0.50;;;;;;;8.63;41.79;98444.96;107503;1277;93529;-78
2022/02/19 05:34:35;;;;;;;0.50;0.50;;;;;;;8.60;41.05;98433.98;107465;1276;138698;-78
2022/02/19 05:37:05;;;;;;;0.60;0.60;;;;;;;8.64;40.99;98441.20;107508;1277;98296;-79
2022/02/19 05:39:41;;;;;;;0.50;0.50;;;;;;;8.60;39.97;98446.20;107298;1277;138506;-78
2022/02/19 05:42:11;;;;;;;0.50;0.50;;;;;;;8.57;39.59;98445.27;107436;1276;93493;-78
2022/02/19 05:44:39;;;;;;;0.50;0.50;;;;;;;8.54;39.91;98457.97;107652;1276;93465;-77
2022/02/19 05:47:08;;;;;;;0.60;0.60;;;;;;;8.54;40.08;98454.05;107315;1277;138837;-78
2022/02/19 05:49:40;;;;;;;0.60;0.60;;;;;;;8.51;39.60;98461.13;107476;1277;99373;-77
2022/02/19 05:52:20;;;;;;;0.50;0.50;;;;;;;8.48;39.49;98457.02;107424;1277;140143;-77
2022/02/19 05:54:59;;;;;;;0.60;0.60;;;;;;;8.48;39.86;98469.93;107516;1276;93097;-78
2022/02/19 05:57:29;;;;;;;0.60;0.60;;;;;;;8.44;39.87;98464.80;107428;1276;139934;-77
2022/02/19 05:59:57;;;;;;;0.60;0.60;;;;;;;8.41;38.83;98475.20;107555;1276;109456;-76
2022/02/19 06:02:25;;;;;;;0.60;0.60;;;;;;;8.35;38.64;98481.30;107530;1277;98539;-77
2022/02/19 06:04:53;;;;;;;0.60;0.60;;;;;;;8.35;38.63;98481.30;107286;1276;139005;-77
2022/02/19 06:07:21;;;;;;;0.50;0.50;;;;;;;8.34;38.69;98495.12;107587;1276;93374;-77
2022/02/19 06:09:48;;;;;;;0.50;0.50;;;;;;;8.35;38.68;98492.64;107544;1277;138815;-78
2022/02/19 06:12:18;;;;;;;0.50;0.50;;;;;;;8.34;38.87;98494.23;107538;1277;108953;-78
2022/02/19 06:14:56;;;;;;;0.60;0.60;;;;;;;8.36;39.23;98496.12;107407;1277;99351;-78
2022/02/19 06:17:28;;;;;;;0.60;0.60;;;;;;;8.34;39.25;98500.27;107407;1277;138927;-77
2022/02/19 06:19:56;;;;;;;0.60;0.60;;;;;;;8.35;39.10;98498.27;107459;1277;93083;-78
2022/02/19 06:22:24;;;;;;;0.60;0.60;;;;;;;8.35;39.23;98498.64;107487;1277;138574;-77
2022/02/19 06:24:52;;;;;;;0.60;0.60;;;;;;;8.33;38.88;98492.73;107795;1277;109940;-78
2022/02/19 06:27:22;;;;;;;0.50;0.50;;;;;;;8.30;38.87;98494.98;107735;1276;137794;-78
2022/02/19 06:30:01;;;;;;;0.60;0.60;;;;;;;8.28;38.91;98502.66;107509;1276;109473;-77
2022/02/19 06:32:41;;;;;;;0.60;0.60;;;;;;;8.29;39.09;98501.95;107445;1277;93345;-78
2022/02/19 06:35:10;;;;;;;0.60;0.60;;;;;;;8.28;39.29;98504.66;107441;1277;141001;-78
2022/02/19 06:37:39;;;;;;;0.50;0.50;;;;;;;8.27;39.11;98504.34;107568;1277;109583;-78
2022/02/19 06:40:10;;;;;;;0.50;0.50;;;;;;;8.25;38.80;98500.71;107391;1276;140900;-76
2022/02/19 06:42:39;;;;;;;0.50;0.50;;;;;;;8.22;38.98;98509.85;107490;1277;108768;-77
2022/02/19 06:45:18;;;;;;;0.60;0.60;;;;;;;8.21;38.52;98509.20;107278;1277;139974;-77
2022/02/19 06:47:46;;;;;;;0.60;0.60;;;;;;;8.25;38.85;98509.55;107547;1276;96992;-76
2022/02/19 06:50:15;;;;;;;0.60;0.60;;;;;;;8.24;38.34;98513.13;107296;1277;109407;-77
2022/02/19 06:52:45;;;;;;;0.60;0.60;;;;;;;8.26;38.46;98508.42;107421;1277;139753;-77
2022/02/19 06:55:14;;;;;;;0.60;0.60;;;;;;;8.29;38.82;98504.60;107437;1277;109063;-76
2022/02/19 06:57:46;;;;;;;0.60;0.60;;;;;;;8.27;38.43;98513.34;107474;1276;140374;-78
2022/02/19 07:00:14;;;;;;;0.60;0.60;;;;;;;8.25;38.35;98495.23;107514;1277;93369;-78
2022/02/19 07:02:46;;;;;;;0.60;0.60;;;;;;;8.27;37.91;98494.08;107485;1277;110044;-77
2022/02/19 07:05:15;;;;;;;0.60;0.60;;;;;;;8.30;38.24;98490.06;107327;1277;139100;-78
2022/02/19 07:08:02;;;;;;;0.60;0.60;;;;;;;8.32;38.42;98495.45;107572;1277;108811;-78
2022/02/19 07:10:30;;;;;;;0.60;0.60;;;;;;;8.31;37.96;98493.88;107386;1277;139024;-78
2022/02/19 07:12:59;;;;;;;0.60;0.60;;;;;;;8.26;37.19;98494.81;107439;1277;93091;-77
2022/02/19 07:15:27;;;;;;;0.60;0.60;;;;;;;8.29;37.84;98489.55;107428;1277;138342;-77
2022/02/19 07:18:21;;;;;;;0.60;0.60;;;;;;;8.33;37.46;98499.80;107455;1276;99713;-78
2022/02/19 07:21:09;;;;;;;0.50;0.50;;;;;;;8.36;37.11;98505.65;107500;1276;139521;-77
2022/02/19 07:23:37;;;;;;;0.60;0.60;;;;;;;8.40;37.26;98498.42;107598;1275;93471;-77
2022/02/19 07:26:06;;;;;;;0.60;0.60;;;;;;;8.41;37.25;98501.00;107570;1277;93317;-78
2022/02/19 07:28:35;;;;;;;0.50;0.50;;;;;;;8.42;37.56;98498.66;107334;1277;138456;-78
2022/02/19 07:31:03;;;;;;;0.60;0.60;;;;;;;8.44;37.60;98510.09;107617;1277;97412;-78
2022/02/19 07:33:31;;;;;;;0.50;0.50;;;;;;;8.46;37.65;98510.34;107359;1277;138766;-78
2022/02/19 07:36:05;;;;;;;0.60;0.60;;;;;;;8.47;37.75;98515.45;107500;1277;93753;-78
2022/02/19 07:38:34;;;;;;;0.60;0.60;;;;;;;8.44;37.43;98516.41;107499;1277;93162;-77
2022/02/19 07:41:02;;;;;;;0.60;0.60;;;;;;;8.40;37.44;98513.79;107371;1277;139053;-78
2022/02/19 07:43:50;;;;;;;0.50;0.50;;;;;;;8.42;37.39;98518.48;107626;1276;101330;-77
2022/02/19 07:46:23;;;;;;;0.60;0.60;;;;;;;8.38;37.34;98531.06;107373;1277;138020;-79
2022/02/19 07:58:23;;;;;;;0.50;0.50;;;;;;;8.41;38.13;98541.52;107491;1276;139084;-79
2022/02/19 08:00:59;;;;;;;0.50;0.50;;;;;;;8.49;38.67;98544.67;107476;1275;109332;-79
2022/02/19 08:03:30;;;;;;;0.50;0.50;;;;;;;8.52;38.10;98553.77;107425;1277;139947;-78
2022/02/19 08:06:01;;;;;;;0.60;0.60;;;;;;;8.51;38.27;98542.66;107500;1277;93839;-78
2022/02/19 08:08:29;;;;;;;0.60;0.60;;;;;;;8.57;38.17;98551.06;107562;1277;108427;-79
2022/02/19 08:11:00;;;;;;;0.60;0.60;;;;;;;8.58;38.32;98553.27;107324;1277;140349;-78
2022/02/19 08:13:27;;;;;;;0.50;0.50;;;;;;;8.54;37.74;98538.25;107609;1276;109604;-77
2022/02/19 08:15:56;;;;;;;0.60;0.60;;;;;;;8.51;38.05;98550.26;107520;1275;138963;-76
2022/02/19 08:18:24;;;;;;;0.60;0.60;;;;;;;8.58;38.27;98559.67;107582;1276;93408;-77
2022/02/19 08:20:53;;;;;;;0.50;0.50;;;;;;;8.70;38.30;98556.62;107566;1276;110244;-78
2022/02/19 08:23:21;;;;;;;0.50;0.50;;;;;;;8.75;38.37;98558.15;107461;1276;140472;-77
2022/02/19 08:25:54;;;;;;;0.60;0.60;;;;;;;8.80;38.67;98568.34;107555;1276;109133;-76
2022/02/19 08:28:22;;;;;;;0.50;0.50;;;;;;;8.78;37.97;98577.98;107455;1276;140326;-75
2022/02/19 08:30:50;;;;;;;0.50;0.50;;;;;;;8.77;37.92;98603.19;107576;1277;93699;-76
2022/02/19 08:33:18;;;;;;;0.60;0.60;;;;;;;8.77;38.30;98601.21;107459;1276;139924;-76
2022/02/19 08:35:46;;;;;;;0.50;0.50;;;;;;;8.85;38.52;98602.41;107563;1276;99335;-76
2022/02/19 08:38:14;;;;;;;0.50;0.50;;;;;;;8.92;38.54;98607.23;107536;1277;108896;-76
2022/02/19 08:40:42;;;;;;;0.50;0.50;;;;;;;8.91;38.68;98606.92;107450;1276;139631;-78
2022/02/19 08:43:10;;;;;;;0.50;0.50;;;;;;;8.94;38.92;98612.48;107606;1276;93723;-78
2022/02/19 08:45:39;;;;;;;0.50;0.50;;;;;;;8.93;39.19;98620.31;107449;1276;138123;-77
2022/02/19 08:48:08;;;;;;;0.60;0.60;;;;;;;8.93;38.65;98622.55;107587;1276;99764;-79
2022/02/19 08:50:38;;;;;;;0.60;0.60;;;;;;;8.97;38.79;98616.17;107595;1276;107766;-76
2022/02/19 08:53:09;;;;;;;0.60;0.60;;;;;;;9.08;39.13;98614.58;107426;1276;139085;-77
2022/02/19 08:55:39;;;;;;;0.60;0.60;;;;;;;9.15;38.71;98600.94;107632;1276;93777;-77
2022/02/19 08:58:07;;;;;;;0.60;0.60;;;;;;;9.14;38.52;98605.62;107485;1276;140161;-77
2022/02/19 09:00:36;;;;;;;0.50;0.50;;;;;;;9.17;38.41;98608.64;107611;1276;98365;-78
2022/02/19 09:03:04;;;;;;;0.50;0.50;;;;;;;9.14;38.02;98607.38;107592;1276;109048;-76
2022/02/19 09:05:32;;;;;;;0.50;0.50;;;;;;;9.17;38.09;98608.13;107437;1276;140136;-78
2022/02/19 09:08:00;;;;;;;0.50;0.50;;;;;;;9.23;38.14;98612.80;107566;1276;93494;-76
2022/02/19 09:10:28;;;;;;;0.50;0.50;;;;;;;9.23;37.92;98604.80;107496;1276;139091;-78
2022/02/19 09:12:55;;;;;;;0.50;0.50;;;;;;;9.27;37.37;98617.90;107620;1276;99491;-75
2022/02/19 09:15:24;;;;;;;0.50;0.40;;;;;;;9.48;37.38;98644.52;107437;1276;139041;-76
2022/02/19 09:17:52;;;;;;;0.50;0.50;;;;;;;9.58;36.71;98629.85;107632;1276;93453;-76
2022/02/19 09:20:21;;;;;;;0.50;0.50;;;;;;;9.66;37.21;98637.77;107613;1276;94161;-77
2022/02/19 09:22:50;;;;;;;0.50;0.40;;;;;;;9.80;37.47;98641.09;107497;1276;138691;-76
2022/02/19 09:25:18;;;;;;;0.50;0.40;;;;;;;9.90;37.21;98642.36;107603;1276;99119;-76
2022/02/19 09:27:46;;;;;;;0.40;0.40;;;;;;;9.99;37.30;98645.83;107454;1276;139391;-77
2022/02/19 09:30:14;;;;;;;0.50;0.40;;;;;;;10.12;36.85;98641.56;107563;1274;93545;-77
2022/02/19 09:32:41;;;;;;;0.40;0.40;;;;;;;10.28;36.48;98659.19;107557;1276;93117;-78
2022/02/19 09:35:12;;;;;;;0.40;0.40;;;;;;;10.43;36.24;98654.89;107475;1276;139139;-77
2022/02/19 09:37:40;;;;;;;0.40;0.40;;;;;;;10.43;36.38;98664.30;107459;1276;98505;-77
2022/02/19 09:40:09;;;;;;;0.50;0.50;;;;;;;10.46;36.17;98665.52;107353;1276;142699;-77
2022/02/19 09:42:37;;;;;;;0.40;0.40;;;;;;;10.70;35.29;98671.86;107464;1276;94104;-77
2022/02/19 09:45:07;;;;;;;0.50;0.40;;;;;;;10.51;35.52;98683.00;107516;1277;95034;-77
2022/02/19 09:47:36;;;;;;;0.40;0.40;;;;;;;10.22;36.15;98698.52;107436;1276;138693;-75
2022/02/19 09:50:06;;;;;;;0.40;0.40;;;;;;;9.95;36.94;98686.61;107549;1276;100363;-77
2022/02/19 09:52:35;;;;;;;0.50;0.50;;;;;;;9.81;37.11;98691.95;107336;1277;140025;-77
2022/02/19 09:55:03;;;;;;;0.40;0.40;;;;;;;9.78;37.70;98702.56;107174;1277;93856;-76
2022/02/19 09:57:31;;;;;;;0.40;0.40;;;;;;;9.75;38.27;98711.22;107393;1277;139328;-76
2022/02/19 09:59:58;;;;;;;0.40;0.40;;;;;;;9.63;38.03;98718.70;107427;1276;109695;-77
2022/02/19 10:02:41;;;;;;;0.50;0.50;;;;;;;9.50;38.04;98713.86;107559;1276;99389;-77
2022/02/19 10:05:16;;;;;;;0.50;0.40;;;;;;;9.39;38.20;98721.32;107360;1276;139777;-77
2022/02/19 10:07:44;;;;;;;0.40;0.40;;;;;;;9.58;38.57;98722.34;107456;1276;93540;-78
2022/02/19 10:10:25;;;;;;;0.50;0.40;;;;;;;9.54;38.38;98728.36;107341;1276;141479;-80
2022/02/19 10:12:54;;;;;;;0.50;0.40;;;;;;;9.34;38.58;98730.77;107452;1276;109953;-76
2022/02/19 10:15:22;;;;;;;0.50;0.50;;;;;;;9.30;39.29;98735.89;107413;1276;138795;-77
2022/02/19 10:17:51;;;;;;;0.50;0.40;;;;;;;9.25;39.28;98744.46;107423;1276;108866;-77
2022/02/19 10:20:20;;;;;;;0.50;0.50;;;;;;;9.20;39.12;98733.34;107536;1276;93607;-77
2022/02/19 10:22:48;;;;;;;0.50;0.50;;;;;;;9.10;39.58;98755.08;107442;1276;139046;-77
2022/02/19 10:25:21;;;;;;;0.50;0.40;;;;;;;9.09;39.54;98746.77;107562;1276;108837;-77
2022/02/19 10:27:56;;;;;;;0.50;0.50;;;;;;;9.17;39.76;98745.15;107478;1275;140201;-78
2022/02/19 10:30:24;;;;;;;0.50;0.50;;;;;;;9.36;39.31;98754.02;107430;1276;108990;-78
2022/02/19 10:32:54;;;;;;;0.50;0.40;;;;;;;9.34;39.38;98762.98;107502;1276;93406;-78
2022/02/19 10:35:37;;;;;;;0.50;0.50;;;;;;;9.33;39.74;98770.12;107329;1276;138455;-77
2022/02/19 10:38:10;;;;;;;0.50;0.40;;;;;;;9.34;40.33;98784.21;107528;1276;110571;-77
2022/02/19 10:40:43;;;;;;;0.50;0.40;;;;;;;9.29;39.70;98787.15;107419;1276;138173;-79
2022/02/19 10:43:13;;;;;;;0.50;0.50;;;;;;;9.24;40.30;98787.87;107518;1276;108857;-77
2022/02/19 10:45:55;;;;;;;0.60;0.60;;;;;;;9.18;40.67;98787.44;107384;1276;139080;-77
2022/02/19 10:48:25;;;;;;;0.50;0.50;;;;;;;9.11;40.24;98791.32;107499;1276;93402;-77
2022/02/19 10:51:12;;;;;;;0.50;0.50;;;;;;;9.14;40.69;98800.76;107528;1276;109058;-77
2022/02/19 10:53:43;;;;;;;0.60;0.60;;;;;;;9.10;40.84;98800.05;107416;1276;138501;-76
2022/02/19 10:56:13;;;;;;;0.50;0.40;;;;;;;9.04;41.00;98810.75;107486;1276;109115;-77
2022/02/19 10:59:11;;;;;;;0.50;0.50;;;;;;;8.98;40.96;98816.67;107158;1276;139228;-77
2022/02/19 11:01:47;;;;;;;0.60;0.60;;;;;;;8.94;40.77;98824.83;107461;1276;93342;-77
2022/02/19 11:04:19;;;;;;;0.50;0.50;;;;;;;8.92;40.98;98827.40;107422;1276;139491;-74
2022/02/19 11:06:48;;;;;;;0.50;0.50;;;;;;;8.88;41.29;98833.27;107532;1276;99367;-78
2022/02/19 11:09:16;;;;;;;0.50;0.50;;;;;;;8.91;41.58;98832.42;107410;1276;139369;-76
2022/02/19 11:11:46;;;;;;;0.50;0.50;;;;;;;8.97;41.77;98831.77;107479;1276;93418;-77
2022/02/19 11:14:16;;;;;;;0.50;0.50;;;;;;;9.02;41.72;98838.98;107511;1276;93385;-77
2022/02/19 11:16:44;;;;;;;0.50;0.40;;;;;;;9.07;41.56;98847.81;107396;1276;140102;-78
2022/02/19 11:19:15;;;;;;;0.50;0.50;;;;;;;9.09;41.50;98850.02;107508;1274;99486;-77
2022/02/19 11:21:43;;;;;;;0.50;0.40;;;;;;;9.09;41.26;98851.27;107429;1276;142222;-77
2022/02/19 11:24:11;;;;;;;0.50;0.40;;;;;;;9.09;41.34;98861.19;107355;1276;93852;-77
2022/02/19 11:26:39;;;;;;;0.50;0.50;;;;;;;9.11;41.28;98859.84;107523;1276;93417;-76
2022/02/19 11:29:12;;;;;;;0.60;0.60;;;;;;;9.14;41.69;98862.89;107180;1277;139288;-76
2022/02/19 11:31:41;;;;;;;0.50;0.40;;;;;;;9.17;41.29;98877.64;107342;1276;98665;-77
2022/02/19 11:34:09;;;;;;;0.50;0.50;;;;;;;9.16;41.30;98886.00;107230;1276;138969;-75
2022/02/19 11:36:37;;;;;;;0.50;0.50;;;;;;;9.24;41.15;98885.66;107459;1276;93404;-76
2022/02/19 11:39:05;;;;;;;0.50;0.50;;;;;;;9.41;41.19;98879.55;107516;1276;93063;-76
2022/02/19 11:41:40;;;;;;;0.40;0.40;;;;;;;9.52;40.91;98896.23;107384;1276;138458;-76
2022/02/19 11:44:20;;;;;;;0.50;0.50;;;;;;;9.59;40.61;98903.02;107488;1276;99872;-77
2022/02/19 11:46:48;;;;;;;0.40;0.40;;;;;;;9.52;40.93;98903.67;107407;1274;138627;-76
2022/02/19 11:49:23;;;;;;;0.50;0.40;;;;;;;9.43;40.93;98911.70;107536;1276;93417;-76
2022/02/19 11:52:06;;;;;;;0.50;0.50;;;;;;;9.30;41.14;98908.93;107460;1276;139454;-78